Time;durP1;ratioP1;P1;durP2;ratioP2;P2;SDS_P1;SDS_P2;PMS_P1;PMS_P2;Temp;Humidity;BMP_temperature;BMP_pressure;BME280_temperature;BME280_humidity;BME280_pressure;Samples;Min_cycle;Max_cycle;Signal;HPM_P1;HPM_P2
2023/04/27 00:01:11;;;;;;;;;1.00;1.00;;;;;17.47;75.06;100332.59;5080559;28;45467;-73
2023/04/27 00:03:38;;;;;;;;;2.67;2.00;;;;;17.52;74.84;100324.63;5079437;28;45430;-70
2023/04/27 00:06:07;;;;;;;;;2.67;2.00;;;;;17.53;74.98;100324.66;5080236;28;46628;-73
2023/04/27 00:08:36;;;;;;;;;2.33;2.33;;;;;17.49;74.72;100314.97;5079892;27;45457;-73
2023/04/27 00:11:02;;;;;;;;;2.00;2.00;;;;;17.59;74.91;100329.91;5080203;27;45551;-75
2023/04/27 00:13:30;;;;;;;;;2.67;2.67;;;;;17.66;74.54;100342.19;5080192;27;45674;-73
2023/04/27 00:15:55;;;;;;;;;2.33;2.00;;;;;17.58;74.49;100328.13;5078337;27;45420;-73
2023/04/27 00:18:21;;;;;;;;;3.00;3.00;;;;;17.67;74.40;100345.75;5078290;28;45574;-73
2023/04/27 00:20:46;;;;;;;;;2.00;1.67;;;;;17.62;74.38;100339.59;5080128;27;45393;-73
2023/04/27 00:23:12;;;;;;;;;2.00;2.00;;;;;17.67;74.16;100354.53;5078928;28;45444;-74
2023/04/27 00:25:38;;;;;;;;;2.00;2.00;;;;;17.68;74.45;100351.00;5078764;27;45490;-75
2023/04/27 00:28:03;;;;;;;;;1.67;1.67;;;;;17.70;74.27;100348.38;5079975;27;45297;-74
2023/04/27 00:30:29;;;;;;;;;1.67;1.67;;;;;17.62;74.61;100344.88;5079682;27;45468;-73
2023/04/27 00:32:54;;;;;;;;;1.67;1.67;;;;;17.63;73.48;100344.88;5079895;28;45327;-74
2023/04/27 00:35:20;;;;;;;;;3.00;2.00;;;;;17.61;73.96;100338.72;5077819;28;46472;-74
2023/04/27 00:37:45;;;;;;;;;1.00;1.00;;;;;17.58;74.27;100332.53;5079460;28;45421;-72
2023/04/27 00:40:11;;;;;;;;;1.00;1.00;;;;;17.64;73.75;100343.09;5078385;28;45401;-73
2023/04/27 00:42:37;;;;;;;;;1.67;1.33;;;;;17.63;74.33;100344.00;5080164;27;45564;-72
2023/04/27 00:45:04;;;;;;;;;1.33;1.00;;;;;17.55;74.44;100325.53;5079278;27;45515;-76
2023/04/27 00:47:31;;;;;;;;;1.67;1.00;;;;;17.59;74.26;100336.97;5078119;28;45255;-72
2023/04/27 00:49:57;;;;;;;;;1.00;1.00;;;;;17.61;74.53;100345.75;5078120;28;45456;-75
2023/04/27 00:52:23;;;;;;;;;2.00;2.00;;;;;17.58;74.51;100329.91;5079602;27;45492;-73
2023/04/27 00:54:50;;;;;;;;;2.00;1.67;;;;;17.59;74.38;100322.00;5077971;28;46970;-73
2023/04/27 00:57:16;;;;;;;;;1.67;1.67;;;;;17.49;74.44;100307.06;5079372;28;45448;-75
2023/04/27 00:59:41;;;;;;;;;1.00;1.00;;;;;17.46;74.64;100291.19;5094753;27;45476;-74
2023/04/27 01:02:09;;;;;;;;;1.00;1.00;;;;;17.43;74.45;100285.94;5078604;28;45591;-75
2023/04/27 01:04:35;;;;;;;;;2.00;1.00;;;;;17.55;74.53;100307.03;5077618;28;46943;-73
2023/04/27 01:07:01;;;;;;;;;1.00;1.00;;;;;17.49;74.69;100300.00;5077970;27;45380;-73
2023/04/27 01:09:27;;;;;;;;;1.33;1.33;;;;;17.36;74.71;100279.78;5079340;27;45328;-74
2023/04/27 01:11:52;;;;;;;;;0.00;0.00;;;;;17.22;74.76;100281.56;5079589;27;45329;-74
2023/04/27 01:14:18;;;;;;;;;1.00;1.00;;;;;17.25;75.62;100300.06;5077546;28;46963;-74
2023/04/27 01:16:45;;;;;;;;;1.00;1.00;;;;;17.16;76.10;100307.97;5079078;27;45463;-74
2023/04/27 01:19:10;;;;;;;;;2.00;2.00;;;;;17.11;76.11;100300.06;5079461;28;45402;-75
2023/04/27 01:21:36;;;;;;;;;2.00;1.67;;;;;17.10;76.11;100299.16;5078973;27;45477;-74
2023/04/27 01:24:04;;;;;;;;;3.00;2.00;;;;;16.90;76.34;100267.50;5079134;28;45495;-75
2023/04/27 01:26:30;;;;;;;;;2.33;2.33;;;;;17.02;76.45;100290.38;5078862;27;45246;-74
2023/04/27 01:28:55;;;;;;;;;2.00;2.00;;;;;17.01;76.39;100278.06;5078752;27;45421;-74
2023/04/27 01:31:21;;;;;;;;;2.00;2.00;;;;;17.00;76.65;100272.78;5079056;28;45322;-73
2023/04/27 01:33:46;;;;;;;;;2.00;2.00;;;;;17.04;76.66;100277.19;5076976;28;46411;-77
2023/04/27 01:36:12;;;;;;;;;3.00;2.00;;;;;17.10;76.89;100282.44;5079194;27;45530;-77
2023/04/27 01:38:38;;;;;;;;;1.00;1.00;;;;;17.06;76.85;100284.22;5079090;28;45548;-72
2023/04/27 01:41:04;;;;;;;;;1.33;1.33;;;;;17.07;76.86;100283.34;5078968;28;45287;-73
2023/04/27 01:43:31;;;;;;;;;2.33;2.00;;;;;17.21;76.59;100298.25;5078858;27;46270;-73
2023/04/27 01:46:11;;;;;;;;;2.00;2.00;;;;;17.14;76.15;100273.66;5078722;27;45463;-73
2023/04/27 01:48:37;;;;;;;;;1.00;1.00;;;;;17.22;76.01;100279.78;5078617;27;45373;-73
2023/04/27 01:51:03;;;;;;;;;1.67;1.67;;;;;17.16;76.28;100271.88;5077284;28;45304;-73
2023/04/27 01:53:29;;;;;;;;;3.00;2.00;;;;;17.08;76.72;100265.75;5077956;27;45483;-74
2023/04/27 01:55:55;;;;;;;;;1.67;1.67;;;;;17.01;76.22;100249.03;5078239;28;45507;-74
2023/04/27 01:58:21;;;;;;;;;2.00;2.00;;;;;17.08;76.22;100260.47;5078366;27;45492;-74
2023/04/27 02:00:46;;;;;;;;;2.00;1.00;;;;;17.04;76.53;100254.31;5078273;27;45264;-74
2023/04/27 02:03:12;;;;;;;;;2.00;2.00;;;;;16.93;76.56;100229.72;5078668;27;46635;-74
2023/04/27 02:05:37;;;;;;;;;2.00;1.67;;;;;17.04;76.58;100256.94;5078323;27;45217;-73
2023/04/27 02:08:03;;;;;;;;;1.00;0.00;;;;;17.06;76.51;100259.59;5078382;27;45356;-74
2023/04/27 02:10:28;;;;;;;;;2.00;1.00;;;;;17.10;76.54;100272.78;5077065;28;45303;-73
2023/04/27 02:12:54;;;;;;;;;2.00;2.00;;;;;17.11;76.41;100281.59;5077798;27;46661;-73
2023/04/27 02:15:19;;;;;;;;;2.00;1.00;;;;;17.03;76.49;100255.19;5078030;27;45503;-73
2023/04/27 02:17:45;;;;;;;;;1.00;1.00;;;;;16.60;75.85;100180.47;5076844;28;45575;-74
2023/04/27 02:20:11;;;;;;;;;2.00;2.00;;;;;17.16;76.27;100274.53;5078617;27;45605;-73
2023/04/27 02:22:42;;;;;;;;;1.00;1.00;;;;;17.19;76.05;100276.28;5078003;27;46341;-73
2023/04/27 02:25:08;;;;;;;;;2.00;1.00;;;;;17.02;76.29;100248.16;5078123;28;45309;-74
2023/04/27 02:27:36;;;;;;;;;1.00;1.00;;;;;17.08;76.25;100261.34;5078145;27;45262;-73
2023/04/27 02:30:07;;;;;;;;;2.00;1.67;;;;;17.19;76.03;100277.19;5076340;28;45528;-73
2023/04/27 02:32:33;;;;;;;;;1.00;1.00;;;;;17.15;76.08;100264.88;5077548;28;46185;-74
2023/04/27 02:34:58;;;;;;;;;1.00;1.00;;;;;17.23;75.90;100271.00;5077902;27;45380;-74
2023/04/27 02:37:24;;;;;;;;;1.33;1.33;;;;;17.19;75.57;100250.78;5077903;27;45378;-73
2023/04/27 02:39:50;;;;;;;;;1.00;1.00;;;;;17.28;75.29;100261.31;5078068;27;45457;-73
2023/04/27 02:42:15;;;;;;;;;1.00;1.00;;;;;17.26;75.31;100254.28;5077705;27;46428;-74
2023/04/27 02:44:41;;;;;;;;;1.00;1.00;;;;;17.24;76.02;100258.69;5077618;28;45679;-75
2023/04/27 02:47:06;;;;;;;;;1.67;1.67;;;;;17.08;76.35;100226.16;5076460;28;45568;-73
2023/04/27 02:49:32;;;;;;;;;2.00;2.00;;;;;17.10;76.55;100256.06;5076172;28;45302;-73
2023/04/27 02:51:57;;;;;;;;;2.00;2.00;;;;;17.03;76.70;100265.75;5077335;28;45429;-74
2023/04/27 02:54:24;;;;;;;;;2.67;2.00;;;;;16.98;76.82;100256.09;5076300;28;45412;-73
2023/04/27 02:56:50;;;;;;;;;1.00;1.00;;;;;16.99;77.05;100274.56;5076466;28;45326;-73
2023/04/27 02:59:15;;;;;;;;;2.00;1.33;;;;;16.92;76.86;100250.81;5076643;28;45670;-73
2023/04/27 03:01:41;;;;;;;;;2.00;1.00;;;;;16.85;76.13;100228.81;5076059;28;46402;-73
2023/04/27 03:04:06;;;;;;;;;1.33;1.00;;;;;16.83;76.77;100230.56;5077322;28;45433;-73
2023/04/27 03:06:32;;;;;;;;;3.00;3.00;;;;;16.89;77.52;100257.84;5077085;27;45523;-74
2023/04/27 03:08:57;;;;;;;;;2.00;2.00;;;;;16.73;78.19;100228.78;5076342;28;45642;-72
2023/04/27 03:11:23;;;;;;;;;3.00;2.00;;;;;16.81;78.04;100246.44;5077519;27;46171;-73
2023/04/27 03:13:48;;;;;;;;;2.00;2.00;;;;;16.82;78.31;100249.94;5076077;28;45399;-73
2023/04/27 03:16:14;;;;;;;;;2.00;2.00;;;;;16.71;78.20;100226.16;5077356;27;45304;-73
2023/04/27 03:18:40;;;;;;;;;2.67;2.67;;;;;16.92;78.00;100245.53;5076137;28;45499;-74
2023/04/27 03:21:10;;;;;;;;;3.00;3.00;;;;;16.99;77.67;100247.28;5077089;27;45461;-73
2023/04/27 03:23:37;;;;;;;;;3.33;3.00;;;;;17.01;77.52;100249.03;5077144;27;45527;-74
2023/04/27 03:26:10;;;;;;;;;3.33;3.33;;;;;17.05;77.24;100248.16;5077203;27;45484;-73
2023/04/27 03:28:36;;;;;;;;;2.00;2.00;;;;;17.01;77.14;100230.56;5077431;27;45449;-73
2023/04/27 03:31:10;;;;;;;;;1.33;1.00;;;;;17.10;77.26;100242.88;5078470;27;45572;-72
2023/04/27 03:33:36;;;;;;;;;3.00;3.00;;;;;17.10;77.07;100230.53;5079297;28;45343;-73
2023/04/27 03:36:03;;;;;;;;;2.00;2.00;;;;;17.18;77.04;100238.44;5079410;28;45268;-73
2023/04/27 03:38:29;;;;;;;;;1.00;1.00;;;;;17.20;77.01;100230.53;5079555;28;45351;-72
2023/04/27 03:40:56;;;;;;;;;3.00;2.67;;;;;17.16;77.11;100213.81;5078999;28;46271;-74
2023/04/27 03:43:22;;;;;;;;;2.00;2.00;;;;;17.12;76.97;100211.19;5080686;27;45629;-73
2023/04/27 03:45:48;;;;;;;;;3.00;2.00;;;;;17.18;76.79;100211.19;5079408;28;45488;-73
2023/04/27 03:48:15;;;;;;;;;1.33;1.33;;;;;17.13;76.80;100211.19;5080746;27;45506;-73
2023/04/27 03:50:45;;;;;;;;;2.67;2.00;;;;;17.28;76.84;100224.34;5080136;27;46343;-76
2023/04/27 03:53:11;;;;;;;;;2.00;2.00;;;;;17.28;76.70;100229.63;5080368;27;45478;-74
2023/04/27 03:55:38;;;;;;;;;1.33;1.33;;;;;17.16;76.23;100187.44;5079091;28;45366;-73
2023/04/27 03:58:03;;;;;;;;;2.33;2.33;;;;;17.22;76.24;100207.66;5080456;27;45364;-73
2023/04/27 04:00:30;;;;;;;;;2.00;2.00;;;;;17.17;76.85;100196.22;5078747;28;46274;-73
2023/04/27 04:02:55;;;;;;;;;2.33;2.00;;;;;17.24;76.80;100203.25;5080254;27;45522;-73
2023/04/27 04:05:21;;;;;;;;;3.00;2.67;;;;;17.22;76.86;100192.69;5080562;28;45317;-74
2023/04/27 04:07:47;;;;;;;;;2.00;2.00;;;;;17.16;77.13;100183.91;5080890;27;45306;-73
2023/04/27 04:10:13;;;;;;;;;2.00;2.00;;;;;17.06;76.83;100159.31;5080074;27;45522;-73
2023/04/27 04:12:38;;;;;;;;;2.33;2.33;;;;;17.09;76.80;100159.31;5078652;28;45420;-73
2023/04/27 04:15:04;;;;;;;;;3.00;2.67;;;;;17.01;76.93;100146.13;5080364;27;45304;-76
2023/04/27 04:17:30;;;;;;;;;2.00;1.00;;;;;16.95;77.28;100150.53;5079074;28;45589;-73
2023/04/27 04:19:55;;;;;;;;;2.00;2.00;;;;;16.94;77.07;100154.94;5079559;27;46106;-73
2023/04/27 04:22:21;;;;;;;;;2.00;2.00;;;;;16.90;77.08;100156.69;5078874;28;45495;-72
2023/04/27 04:24:46;;;;;;;;;3.00;3.00;;;;;17.00;77.16;100175.16;5079740;27;45493;-74
2023/04/27 04:27:12;;;;;;;;;2.33;2.00;;;;;16.97;77.47;100161.94;5078775;28;45871;-75
2023/04/27 04:29:38;;;;;;;;;2.00;2.00;;;;;16.83;77.56;100131.22;5079772;27;46187;-74
2023/04/27 04:32:06;;;;;;;;;2.00;2.00;;;;;16.64;77.46;100111.00;5078455;27;45499;-75
2023/04/27 04:34:32;;;;;;;;;1.33;0.67;;;;;16.72;77.93;100130.31;5087101;27;45318;-74
2023/04/27 04:36:58;;;;;;;;;1.00;1.00;;;;;16.73;77.84;100145.25;5088855;27;45559;-73
2023/04/27 04:39:23;;;;;;;;;2.67;2.00;;;;;16.70;77.89;100129.44;5088481;27;46677;-75
2023/04/27 04:41:49;;;;;;;;;1.00;1.00;;;;;16.66;77.98;100141.75;5087713;27;45452;-75
2023/04/27 04:44:15;;;;;;;;;2.00;2.00;;;;;16.50;78.18;100133.00;5088869;27;45561;-76
2023/04/27 04:46:41;;;;;;;;;2.00;1.00;;;;;16.66;78.46;100164.63;5089774;27;45504;-76
2023/04/27 04:49:07;;;;;;;;;3.00;2.33;;;;;16.46;78.37;100130.38;5087515;27;45615;-76
2023/04/27 04:51:33;;;;;;;;;2.00;2.00;;;;;16.53;78.65;100154.97;5089209;27;45294;-74
2023/04/27 04:53:59;;;;;;;;;1.67;1.33;;;;;16.51;78.11;100147.03;5089292;27;45943;-74
2023/04/27 04:56:24;;;;;;;;;1.00;1.00;;;;;16.56;77.94;100153.22;5087554;27;45507;-74
2023/04/27 04:58:50;;;;;;;;;1.00;1.00;;;;;16.49;78.13;100143.53;5078688;27;46321;-75
2023/04/27 05:01:15;;;;;;;;;2.33;2.00;;;;;16.49;78.05;100131.25;5078376;28;45365;-74
2023/04/27 05:03:41;;;;;;;;;1.67;1.67;;;;;16.45;78.33;100144.41;5078337;27;45479;-74
2023/04/27 05:06:07;;;;;;;;;1.00;1.00;;;;;16.30;78.72;100118.94;5078400;27;45447;-76
2023/04/27 05:08:33;;;;;;;;;1.00;1.00;;;;;16.30;78.74;100127.72;5076180;28;46552;-74
2023/04/27 05:10:59;;;;;;;;;2.00;1.00;;;;;16.31;78.62;100125.97;5084984;27;45505;-73
2023/04/27 05:13:25;;;;;;;;;1.00;1.00;;;;;16.40;78.31;100140.91;5078397;28;45387;-73
2023/04/27 05:15:51;;;;;;;;;4.00;3.00;;;;;16.31;77.86;100133.88;5077360;28;45498;-74
2023/04/27 05:18:17;;;;;;;;;2.00;2.00;;;;;15.97;78.30;100104.00;5077765;27;46096;-74
2023/04/27 05:20:43;;;;;;;;;3.00;2.00;;;;;16.05;78.79;100131.22;5078034;27;45304;-73
2023/04/27 05:23:08;;;;;;;;;2.67;1.33;;;;;16.04;78.21;100130.34;5078015;28;45551;-74
2023/04/27 05:25:40;;;;;;;;;2.00;2.00;;;;;15.92;79.00;100104.00;5077864;27;45628;-74
2023/04/27 05:28:08;;;;;;;;;2.67;2.00;;;;;15.99;79.14;100113.66;5075977;28;46532;-74
2023/04/27 05:30:34;;;;;;;;;3.00;3.00;;;;;16.10;79.52;100124.22;5077521;27;45512;-75
2023/04/27 05:33:00;;;;;;;;;4.00;4.00;;;;;16.00;79.37;100096.13;5073598;28;45580;-74
2023/04/27 05:35:26;;;;;;;;;6.00;5.00;;;;;16.02;80.37;100097.88;5076899;27;45410;-74
2023/04/27 05:37:51;;;;;;;;;3.00;3.00;;;;;16.14;79.19;100125.09;5076935;28;45496;-75
2023/04/27 05:40:17;;;;;;;;;3.00;3.00;;;;;16.08;80.25;100103.13;5076715;27;45364;-74
2023/04/27 05:42:45;;;;;;;;;5.00;5.00;;;;;16.03;80.92;100110.13;5077085;27;45533;-73
2023/04/27 05:45:10;;;;;;;;;3.00;2.00;;;;;16.21;80.23;100132.13;5084165;27;45476;-73
2023/04/27 05:47:36;;;;;;;;;3.00;3.00;;;;;16.25;79.60;100110.16;5076604;27;45597;-74
2023/04/27 05:50:02;;;;;;;;;3.00;2.00;;;;;16.36;79.46;100099.63;5076558;27;45519;-72
2023/04/27 05:52:29;;;;;;;;;3.00;2.00;;;;;16.50;78.69;100085.53;5076842;27;45607;-73
2023/04/27 05:54:57;;;;;;;;;3.00;2.00;;;;;16.86;78.23;100115.38;5073935;28;45794;-76
2023/04/27 05:57:24;;;;;;;;;4.33;3.33;;;;;16.93;77.54;100086.34;5076860;27;46623;-77
2023/04/27 05:59:50;;;;;;;;;3.00;3.00;;;;;17.10;77.15;100092.44;5076693;27;45472;-73
2023/04/27 06:02:17;;;;;;;;;5.00;4.00;;;;;17.30;76.60;100111.69;5076912;27;45306;-73
2023/04/27 06:04:43;;;;;;;;;4.00;3.00;;;;;17.37;75.93;100106.38;5080347;27;45367;-72
2023/04/27 06:07:13;;;;;;;;;3.67;3.00;;;;;17.54;75.04;100123.03;5086777;27;45558;-77
2023/04/27 06:09:39;;;;;;;;;2.67;2.67;;;;;17.62;74.90;100112.41;5086253;27;45514;-77
2023/04/27 06:12:06;;;;;;;;;3.67;3.00;;;;;17.68;74.39;100113.25;5086318;27;45495;-76
2023/04/27 06:14:33;;;;;;;;;4.00;4.00;;;;;17.93;74.12;100120.19;5088157;27;45466;-74
2023/04/27 06:16:58;;;;;;;;;2.67;2.67;;;;;18.12;73.40;100113.00;5082056;27;45874;-73
2023/04/27 06:19:25;;;;;;;;;4.67;4.67;;;;;19.13;71.13;100108.50;5075211;28;45433;-73
2023/04/27 06:21:52;;;;;;;;;3.00;3.00;;;;;20.79;65.67;100112.19;5076605;27;45410;-73
2023/04/27 06:24:17;;;;;;;;;3.00;2.33;;;;;23.09;60.39;100099.72;5073677;28;45197;-73
2023/04/27 06:26:43;;;;;;;;;2.00;2.00;;;;;25.26;56.32;100094.41;5076198;27;46575;-72
2023/04/27 06:29:08;;;;;;;;;2.33;2.00;;;;;27.16;50.74;100099.03;5075551;28;45406;-76
2023/04/27 06:31:34;;;;;;;;;2.00;2.00;;;;;28.45;44.49;100105.38;5073736;28;45565;-73
2023/04/27 06:34:00;;;;;;;;;2.67;2.00;;;;;27.97;44.53;100088.97;5065856;28;45645;-74
2023/04/27 06:36:26;;;;;;;;;10.33;9.33;;;;;27.14;46.54;100093.72;5057321;28;45570;-76
2023/04/27 06:38:55;;;;;;;;;5.67;5.00;;;;;27.30;45.79;100103.78;5031951;28;45389;-73
2023/04/27 06:41:21;;;;;;;;;5.00;5.00;;;;;28.96;43.10;100112.53;5035865;28;45521;-75
2023/04/27 06:43:46;;;;;;;;;5.33;4.67;;;;;30.82;39.54;100090.34;5060279;28;45602;-74
2023/04/27 06:46:12;;;;;;;;;5.00;3.00;;;;;31.86;38.42;100092.81;5066251;28;45498;-77
2023/04/27 06:48:37;;;;;;;;;2.33;2.00;;;;;32.95;36.49;100098.94;5066384;28;45272;-72
2023/04/27 06:51:03;;;;;;;;;2.00;2.00;;;;;33.64;34.05;100077.75;5067699;28;45433;-72
2023/04/27 06:53:30;;;;;;;;;1.67;1.67;;;;;34.35;34.05;100098.72;5048059;28;46016;-73
2023/04/27 06:55:56;;;;;;;;;1.00;1.00;;;;;35.14;32.76;100099.75;5066467;28;46214;-74
2023/04/27 06:58:22;;;;;;;;;1.00;1.00;;;;;35.95;31.83;100094.13;5067652;28;45266;-72
2023/04/27 07:00:47;;;;;;;;;1.67;1.67;;;;;34.22;33.76;100087.91;5044831;28;45481;-72
2023/04/27 07:03:13;;;;;;;;;9.33;8.00;;;;;34.49;32.98;100089.50;5071235;28;45493;-75
2023/04/27 07:05:39;;;;;;;;;2.00;2.00;;;;;33.44;35.40;100076.47;5075940;28;46389;-75
2023/04/27 07:08:05;;;;;;;;;2.33;1.00;;;;;32.34;36.52;100070.72;5077269;28;45464;-76
2023/04/27 07:10:31;;;;;;;;;0.67;0.67;;;;;31.66;37.86;100049.06;5059020;28;45537;-76
2023/04/27 07:12:57;;;;;;;;;0.00;0.00;;;;;31.39;39.03;100072.44;5077596;28;45339;-76
2023/04/27 07:15:23;;;;;;;;;0.67;0.67;;;;;31.42;38.77;100067.72;5076640;28;45497;-76
2023/04/27 07:17:51;;;;;;;;;2.67;1.33;;;;;31.45;38.46;100061.28;5058646;28;45681;-75
2023/04/27 07:20:17;;;;;;;;;1.33;0.33;;;;;31.58;38.40;100050.56;5059033;28;45472;-78
2023/04/27 07:22:43;;;;;;;;;1.33;1.00;;;;;33.90;34.50;100057.81;5077248;28;45534;-75
2023/04/27 07:25:09;;;;;;;;;2.33;1.33;;;;;35.64;32.11;100058.63;5076906;28;46009;-76
2023/04/27 07:27:34;;;;;;;;;1.33;1.33;;;;;36.81;29.86;100043.31;5066772;28;45310;-80
2023/04/27 07:30:00;;;;;;;;;0.00;0.00;;;;;37.88;28.70;100040.91;5046874;28;46217;-76
2023/04/27 07:32:26;;;;;;;;;1.33;1.33;;;;;38.49;28.15;100031.56;5068057;28;45441;-76
2023/04/27 07:34:54;;;;;;;;;1.00;1.00;;;;;38.70;28.63;100034.13;5067603;28;46308;-74
2023/04/27 07:37:21;;;;;;;;;1.67;1.67;;;;;37.28;29.43;100038.19;5041035;28;45540;-75
2023/04/27 07:39:48;;;;;;;;;3.00;3.00;;;;;36.52;29.95;100034.94;5066425;28;45462;-75
2023/04/27 07:42:14;;;;;;;;;4.00;4.00;;;;;36.00;30.76;100032.09;5047764;28;45429;-76
2023/04/27 07:44:39;;;;;;;;;2.33;2.00;;;;;36.92;29.82;100034.16;5064590;28;46601;-75
2023/04/27 07:47:05;;;;;;;;;0.00;0.00;;;;;37.84;28.77;100036.75;5065205;28;45527;-75
2023/04/27 07:49:31;;;;;;;;;2.00;2.00;;;;;39.02;27.23;100029.28;5065905;28;45360;-74
2023/04/27 07:51:56;;;;;;;;;1.00;1.00;;;;;39.34;27.57;100016.03;5065569;28;45465;-76
2023/04/27 07:54:22;;;;;;;;;2.33;2.00;;;;;39.87;26.76;100017.16;5066582;28;45279;-80
2023/04/27 07:56:47;;;;;;;;;1.67;1.67;;;;;40.37;26.36;100023.91;5048955;28;45463;-76
2023/04/27 07:59:14;;;;;;;;;1.00;1.00;;;;;40.68;26.07;100012.50;5046735;28;45462;-73
2023/04/27 08:01:40;;;;;;;;;3.00;2.67;;;;;41.05;25.08;100014.09;5026924;28;45472;-76
2023/04/27 08:04:05;;;;;;;;;3.33;3.33;;;;;41.11;25.61;100017.03;5046115;28;46352;-74
2023/04/27 08:06:31;;;;;;;;;2.67;2.00;;;;;41.22;24.85;100002.19;5030857;28;45442;-75
2023/04/27 08:08:59;;;;;;;;;1.67;1.67;;;;;41.42;25.40;100018.34;5029047;28;46210;-74
2023/04/27 08:11:25;;;;;;;;;2.00;2.00;;;;;41.34;25.87;100000.84;5043135;28;46707;-76
2023/04/27 08:13:51;;;;;;;;;3.00;3.00;;;;;41.37;25.70;100004.31;5030480;28;45514;-77
2023/04/27 08:16:16;;;;;;;;;2.67;2.67;;;;;41.08;26.04;99992.69;5058996;28;45515;-74
2023/04/27 08:18:43;;;;;;;;;3.00;2.67;;;;;41.59;25.54;99998.16;5062336;28;45473;-77
2023/04/27 08:21:09;;;;;;;;;4.33;4.00;;;;;42.08;25.14;99995.53;5041197;28;45308;-78
2023/04/27 08:23:36;;;;;;;;;1.33;1.33;;;;;42.42;23.47;99983.47;5040818;28;47845;-73
2023/04/27 08:26:02;;;;;;;;;2.00;2.00;;;;;42.56;23.94;99989.28;5059264;28;45399;-77
2023/04/27 08:28:27;;;;;;;;;3.00;3.00;;;;;42.47;24.13;99953.63;5059763;28;45505;-74
2023/04/27 08:30:53;;;;;;;;;3.67;3.00;;;;;42.93;23.47;100007.91;5059963;28;45425;-73
2023/04/27 08:33:19;;;;;;;;;3.67;2.67;;;;;43.03;23.19;99994.81;5078313;28;46680;-76
2023/04/27 08:35:44;;;;;;;;;3.33;2.67;;;;;43.42;24.13;100009.59;5079158;28;45486;-77
2023/04/27 08:38:10;;;;;;;;;1.67;1.67;;;;;43.92;22.42;100002.75;5078032;28;45563;-73
2023/04/27 08:40:35;;;;;;;;;2.00;2.00;;;;;43.66;22.48;100011.34;5079449;27;45379;-77
2023/04/27 08:43:01;;;;;;;;;1.33;1.33;;;;;43.93;22.61;100009.94;5078357;28;45729;-78
2023/04/27 08:45:27;;;;;;;;;2.00;2.00;;;;;43.86;22.34;100008.97;5079423;27;45437;-77
2023/04/27 08:47:53;;;;;;;;;2.00;1.33;;;;;43.96;22.46;100009.59;5079516;27;45508;-74
2023/04/27 08:50:19;;;;;;;;;1.00;1.00;;;;;43.93;22.00;100003.59;5095264;27;45522;-74
2023/04/27 08:52:46;;;;;;;;;1.67;1.67;;;;;43.95;21.51;100007.84;5094833;27;46723;-73
2023/04/27 08:55:12;;;;;;;;;2.00;2.00;;;;;43.88;21.03;100023.41;5079376;27;45374;-77
2023/04/27 08:57:38;;;;;;;;;2.33;2.00;;;;;43.87;21.25;100002.44;5078832;27;45457;-76
2023/04/27 09:00:12;;;;;;;;;7.00;6.33;;;;;43.56;21.16;100011.56;5079617;28;45443;-73
2023/04/27 09:02:47;;;;;;;;;4.00;4.00;;;;;43.41;22.15;99981.22;5078918;27;46391;-76
2023/04/27 09:05:17;;;;;;;;;2.33;2.33;;;;;43.46;21.38;100016.47;5078545;27;45450;-76
2023/04/27 09:07:59;;;;;;;;;1.00;1.00;;;;;43.55;21.19;100017.25;5078729;27;45371;-77
2023/04/27 09:10:28;;;;;;;;;1.67;1.67;;;;;43.52;20.72;100020.38;5077770;28;45609;-78
2023/04/27 09:13:00;;;;;;;;;1.00;1.00;;;;;43.56;20.38;100007.97;5077158;28;46500;-77
2023/04/27 09:15:27;;;;;;;;;1.00;0.67;;;;;43.78;20.38;100006.31;5078723;27;45419;-77
2023/04/27 09:17:55;;;;;;;;;2.33;2.00;;;;;43.63;20.22;100012.53;5077240;28;45448;-74
2023/04/27 09:20:21;;;;;;;;;7.00;7.00;;;;;43.32;20.83;100008.94;5094426;27;45550;-78
2023/04/27 09:22:50;;;;;;;;;1.67;1.67;;;;;43.26;21.12;100018.78;5093980;27;45292;-73
2023/04/27 09:25:30;;;;;;;;;0.67;0.67;;;;;43.42;20.61;100010.47;5077260;28;45496;-75
2023/04/27 09:27:57;;;;;;;;;1.00;0.67;;;;;43.50;21.10;100010.41;5077396;27;45245;-74
2023/04/27 09:30:23;;;;;;;;;1.33;1.33;;;;;43.64;21.73;100011.50;5078498;27;45562;-76
2023/04/27 09:32:57;;;;;;;;;5.33;5.33;;;;;43.76;21.76;100025.72;5077651;27;45530;-78
2023/04/27 09:35:32;;;;;;;;;5.00;5.00;;;;;43.28;22.15;100017.56;5076707;28;45561;-76
2023/04/27 09:37:59;;;;;;;;;5.00;5.00;;;;;42.78;23.18;100002.28;5077923;27;45435;-73
2023/04/27 09:40:29;;;;;;;;;4.33;4.33;;;;;42.64;22.71;100000.25;5078422;27;45398;-75
2023/04/27 09:42:57;;;;;;;;;4.00;3.33;;;;;42.60;23.18;100020.84;5093928;27;45558;-77
2023/04/27 09:45:24;;;;;;;;;3.33;3.33;;;;;42.73;22.20;100018.41;5078319;27;45417;-74
2023/04/27 09:47:49;;;;;;;;;4.00;4.00;;;;;42.41;22.47;100009.19;5078260;27;45277;-79
2023/04/27 09:50:16;;;;;;;;;2.67;2.00;;;;;42.11;23.06;100006.13;5093952;27;45590;-73
2023/04/27 09:52:42;;;;;;;;;3.00;3.00;;;;;42.56;22.77;100008.50;5077800;28;45363;-75
2023/04/27 09:55:18;;;;;;;;;3.33;3.33;;;;;41.76;22.90;99993.56;5076735;28;45771;-74
2023/04/27 09:58:21;;;;;;;;;2.67;2.67;;;;;41.62;23.28;100013.44;5077902;27;45444;-78
2023/04/27 10:01:02;;;;;;;;;1.67;1.67;;;;;40.90;23.60;99990.03;5093836;27;45675;-77
2023/04/27 10:03:33;;;;;;;;;2.00;2.00;;;;;41.36;22.89;100003.41;5077930;27;46527;-76
2023/04/27 10:06:05;;;;;;;;;3.00;1.67;;;;;41.56;22.89;99998.50;5077945;27;45462;-78
2023/04/27 10:08:34;;;;;;;;;2.33;2.33;;;;;41.71;22.85;99988.63;5077560;28;45506;-79
2023/04/27 10:10:59;;;;;;;;;1.67;1.67;;;;;41.66;22.65;99992.88;5076642;28;45472;-79
2023/04/27 10:13:26;;;;;;;;;1.67;1.67;;;;;42.03;22.53;100003.41;5077634;27;45279;-73
2023/04/27 10:15:52;;;;;;;;;1.00;1.00;;;;;41.83;19.81;99993.78;5093261;27;45291;-79
2023/04/27 10:18:54;;;;;;;;;1.67;1.67;;;;;41.76;20.89;100001.81;5077823;27;45606;-79
2023/04/27 10:21:20;;;;;;;;;1.67;1.67;;;;;42.17;19.81;99998.25;5076510;28;45290;-78
2023/04/27 10:23:48;;;;;;;;;1.33;0.67;;;;;41.95;19.75;99997.03;5078058;27;46379;-77
2023/04/27 10:26:24;;;;;;;;;2.00;1.33;;;;;41.99;19.41;99984.69;5076453;27;45502;-78
2023/04/27 10:29:17;;;;;;;;;2.67;2.67;;;;;42.58;19.37;99987.22;5093223;27;45411;-79
2023/04/27 10:31:46;;;;;;;;;0.67;0.67;;;;;42.33;18.75;100007.31;5075055;28;45499;-74
2023/04/27 10:34:16;;;;;;;;;0.67;0.67;;;;;41.88;19.68;99997.72;5077519;27;45527;-79
2023/04/27 10:36:42;;;;;;;;;1.33;1.33;;;;;41.52;20.17;99987.00;5092977;27;45597;-79
2023/04/27 10:39:21;;;;;;;;;2.67;2.00;;;;;41.12;19.99;99996.78;5093301;27;45339;-80
2023/04/27 10:41:52;;;;;;;;;1.00;1.00;;;;;40.62;19.86;99996.72;5093429;27;45576;-79
2023/04/27 10:44:27;;;;;;;;;0.67;0.67;;;;;40.05;21.26;99976.13;5077209;28;46404;-77
2023/04/27 10:46:54;;;;;;;;;1.00;1.00;;;;;39.60;21.22;99976.22;5077490;27;45548;-73
2023/04/27 10:49:21;;;;;;;;;0.67;0.67;;;;;39.31;21.78;99986.28;5077699;27;45255;-75
2023/04/27 10:51:48;;;;;;;;;2.00;2.00;;;;;38.98;22.06;99976.88;5077660;27;45301;-73
2023/04/27 10:54:14;;;;;;;;;2.33;2.00;;;;;38.91;22.70;99987.47;5077282;27;45444;-79
2023/04/27 10:56:40;;;;;;;;;2.67;2.67;;;;;38.59;22.81;99988.75;5093152;27;45494;-79
2023/04/27 10:59:07;;;;;;;;;2.00;2.00;;;;;38.33;22.97;99996.69;5093256;27;45483;-73
2023/04/27 11:01:33;;;;;;;;;3.00;2.67;;;;;38.02;23.15;99982.34;5077860;27;45354;-72
2023/04/27 11:03:59;;;;;;;;;3.33;2.67;;;;;37.97;23.67;99995.59;5075570;28;46527;-79
2023/04/27 11:06:27;;;;;;;;;2.67;2.67;;;;;37.58;24.64;99987.34;5075790;28;45401;-73
2023/04/27 11:08:53;;;;;;;;;2.00;1.67;;;;;36.35;28.87;99976.53;5076612;27;45448;-78
2023/04/27 11:11:19;;;;;;;;;2.00;2.00;;;;;36.51;30.16;99992.38;5077231;27;45174;-75
2023/04/27 11:13:48;;;;;;;;;2.00;2.00;;;;;36.09;29.58;99992.38;5092409;27;46627;-77
2023/04/27 11:16:15;;;;;;;;;1.67;1.67;;;;;36.00;30.83;99994.03;5075123;28;45411;-78
2023/04/27 11:18:41;;;;;;;;;2.00;2.00;;;;;36.14;30.50;100001.00;5077086;27;45498;-72
2023/04/27 11:21:17;;;;;;;;;3.67;3.67;;;;;36.00;31.22;99996.75;5077123;27;45381;-76
2023/04/27 11:23:42;;;;;;;;;3.00;2.00;;;;;35.83;31.43;99981.88;5077216;27;45399;-74
2023/04/27 11:26:18;;;;;;;;;2.67;2.67;;;;;35.82;32.05;100002.75;5076849;27;45528;-73